createdAt,value
2023-05-01T00:01:56.547Z,48.65
2023-05-01T00:04:26.018Z,48.45
2023-05-01T00:06:55.224Z,47.84
2023-05-01T00:09:24.068Z,47.71
2023-05-01T00:11:52.829Z,47.62
2023-05-01T00:14:21.704Z,47.65
2023-05-01T00:16:50.582Z,47.71
2023-05-01T00:19:19.665Z,48.25
2023-05-01T00:21:48.935Z,47.70
2023-05-01T00:24:17.808Z,47.61
2023-05-01T00:26:47.204Z,47.60
2023-05-01T00:29:16.351Z,47.55
2023-05-01T00:31:46.080Z,47.56
2023-05-01T00:34:14.920Z,47.38
2023-05-01T00:36:44.081Z,47.31
2023-05-01T00:39:13.217Z,46.93
2023-05-01T00:41:42.063Z,46.64
2023-05-01T00:44:11.274Z,46.52
2023-05-01T00:46:40.183Z,46.49
2023-05-01T00:49:09.350Z,46.49
2023-05-01T00:51:38.586Z,46.20
2023-05-01T00:54:07.558Z,45.62
2023-05-01T00:56:36.690Z,45.66
2023-05-01T00:59:06.291Z,45.59
2023-05-01T01:01:36.315Z,44.93
2023-05-01T01:04:06.591Z,44.68
2023-05-01T01:07:02.123Z,44.51
2023-05-01T01:10:18.939Z,44.56
2023-05-01T01:13:12.820Z,44.00
2023-05-01T01:15:51.386Z,44.12
2023-05-01T01:18:42.916Z,43.74
2023-05-01T01:21:17.994Z,43.25
2023-05-01T01:24:08.718Z,41.93
2023-05-01T01:26:53.123Z,41.54
2023-05-01T01:29:37.419Z,41.30
2023-05-01T01:32:32.249Z,40.79
2023-05-01T01:35:05.707Z,39.02
2023-05-01T01:37:43.734Z,39.76
2023-05-01T01:40:23.164Z,39.73
2023-05-01T01:43:06.207Z,40.77
2023-05-01T01:45:44.223Z,41.11
2023-05-01T01:48:18.960Z,41.32
2023-05-01T01:50:48.371Z,41.84
2023-05-01T01:53:19.436Z,39.74
2023-05-01T01:55:49.836Z,38.94
2023-05-01T01:58:25.471Z,37.85
2023-05-01T02:00:59.105Z,38.75
2023-05-01T02:03:28.484Z,39.07
2023-05-01T02:05:59.296Z,38.30
2023-05-01T02:08:31.485Z,37.74
2023-05-01T02:11:02.376Z,38.88
2023-05-01T02:13:34.569Z,39.06
2023-05-01T02:16:25.981Z,39.52
2023-05-01T02:18:56.623Z,38.46
2023-05-01T02:21:27.116Z,37.60
2023-05-01T02:23:57.824Z,37.98
2023-05-01T02:26:29.399Z,37.21
2023-05-01T02:28:59.051Z,37.14
2023-05-01T02:31:28.514Z,37.08
2023-05-01T02:33:57.433Z,36.58
2023-05-01T02:36:26.337Z,36.20
2023-05-01T02:38:55.969Z,36.25
2023-05-01T02:41:28.736Z,35.57
2023-05-01T02:44:04.856Z,35.60
2023-05-01T02:46:38.026Z,36.60
2023-05-01T02:49:07.910Z,37.56
2023-05-01T02:51:38.077Z,37.81
2023-05-01T02:54:07.538Z,37.19
2023-05-01T02:56:36.892Z,37.04
2023-05-01T02:59:05.743Z,36.71
2023-05-01T03:01:35.646Z,37.40
2023-05-01T03:04:05.222Z,38.17
2023-05-01T03:06:34.211Z,37.53
2023-05-01T03:09:03.584Z,37.89
2023-05-01T03:11:32.352Z,37.85
2023-05-01T03:14:01.307Z,37.73
2023-05-01T03:16:30.199Z,38.38
2023-05-01T03:18:59.056Z,38.17
2023-05-01T03:21:27.978Z,37.92
2023-05-01T03:23:56.921Z,38.44
2023-05-01T03:26:26.268Z,37.92
2023-05-01T03:28:55.760Z,37.37
2023-05-01T03:31:25.416Z,37.82
2023-05-01T03:33:55.867Z,38.48
2023-05-01T03:36:25.649Z,38.32
2023-05-01T03:38:55.715Z,38.54
2023-05-01T03:41:47.390Z,38.29
2023-05-01T03:44:27.609Z,38.63
2023-05-01T03:46:56.512Z,38.97
2023-05-01T03:49:30.006Z,38.19
2023-05-01T03:51:58.882Z,35.28
2023-05-01T03:54:28.651Z,33.96
2023-05-01T03:57:17.646Z,34.84
2023-05-01T03:59:47.375Z,34.72
2023-05-01T04:02:17.430Z,35.05
2023-05-01T04:04:48.799Z,35.85
2023-05-01T04:07:17.696Z,35.57
2023-05-01T04:09:48.976Z,35.98
2023-05-01T04:12:17.861Z,36.56
2023-05-01T04:14:47.589Z,36.32
2023-05-01T04:17:17.152Z,36.87
2023-05-01T04:19:48.347Z,37.25
2023-05-01T04:22:17.402Z,36.84
2023-05-01T04:24:46.473Z,37.05
2023-05-01T04:27:15.399Z,36.82
2023-05-01T04:29:44.503Z,36.75
2023-05-01T04:32:14.288Z,37.12
2023-05-01T04:34:43.799Z,38.10
2023-05-01T04:37:12.942Z,37.71
2023-05-01T04:39:42.132Z,37.89
2023-05-01T04:42:11.240Z,37.65
2023-05-01T04:44:40.226Z,37.03
2023-05-01T04:47:09.502Z,37.88
2023-05-01T04:49:38.386Z,37.95
2023-05-01T04:52:07.647Z,37.70
2023-05-01T04:54:51.674Z,38.11
2023-05-01T04:57:22.570Z,37.74
2023-05-01T04:59:52.101Z,38.03
2023-05-01T05:02:21.792Z,37.86
2023-05-01T05:04:51.057Z,37.93
2023-05-01T05:07:19.892Z,37.60
2023-05-01T05:10:07.416Z,38.01
2023-05-01T05:12:37.544Z,37.95
2023-05-01T05:15:07.762Z,37.90
2023-05-01T05:17:37.175Z,37.32
2023-05-01T05:20:06.900Z,37.41
2023-05-01T05:22:38.696Z,37.79
2023-05-01T05:25:25.436Z,37.36
2023-05-01T05:27:54.771Z,36.26
2023-05-01T05:30:23.505Z,36.05
2023-05-01T05:32:55.503Z,36.38
2023-05-01T05:35:24.463Z,36.19
2023-05-01T05:37:53.882Z,35.67
2023-05-01T05:40:22.808Z,35.64
2023-05-01T05:42:57.706Z,35.39
2023-05-01T05:45:28.584Z,35.55
2023-05-01T05:47:58.366Z,36.45
2023-05-01T05:50:28.977Z,35.86
2023-05-01T05:52:57.941Z,36.07
2023-05-01T05:55:27.395Z,36.15
2023-05-01T05:58:04.575Z,36.23
2023-05-01T06:00:34.748Z,36.39
2023-05-01T06:03:07.710Z,37.07
2023-05-01T06:05:37.960Z,36.80
2023-05-01T06:08:06.859Z,37.01
2023-05-01T06:10:35.830Z,37.42
2023-05-01T06:13:13.689Z,37.09
2023-05-01T06:15:49.533Z,37.32
2023-05-01T06:18:18.671Z,37.61
2023-05-01T06:20:48.438Z,37.78
2023-05-01T06:23:17.284Z,37.72
2023-05-01T06:26:10.678Z,37.49
2023-05-01T06:28:39.641Z,37.86
2023-05-01T06:31:08.813Z,36.46
2023-05-01T06:33:42.887Z,35.13
2023-05-01T06:36:34.256Z,33.80
2023-05-01T06:39:03.992Z,33.63
2023-05-01T06:41:34.990Z,33.56
2023-05-01T06:44:03.938Z,33.69
2023-05-01T06:46:32.912Z,34.87
2023-05-01T06:49:02.372Z,35.25
2023-05-01T06:51:32.046Z,35.37
2023-05-01T06:54:00.807Z,35.56
2023-05-01T06:56:29.823Z,35.42
2023-05-01T06:58:58.793Z,35.83
2023-05-01T07:01:28.667Z,36.33
2023-05-01T07:03:58.034Z,35.82
2023-05-01T07:06:28.162Z,35.38
2023-05-01T07:08:56.984Z,36.65
2023-05-01T07:11:27.500Z,36.18
2023-05-01T07:13:56.399Z,35.04
2023-05-01T07:16:25.461Z,35.44
2023-05-01T07:18:54.364Z,34.28
2023-05-01T07:21:23.494Z,32.86
2023-05-01T07:23:52.509Z,33.26
2023-05-01T07:26:21.786Z,33.58
2023-05-01T07:28:50.579Z,33.39
2023-05-01T07:31:19.496Z,32.97
2023-05-01T07:33:48.674Z,33.97
2023-05-01T07:36:19.103Z,34.74
2023-05-01T07:38:48.798Z,34.88
2023-05-01T07:41:17.699Z,35.30
2023-05-01T07:43:46.557Z,34.85
2023-05-01T07:46:16.350Z,35.51
2023-05-01T07:48:45.140Z,35.34
2023-05-01T07:51:14.155Z,36.12
2023-05-01T07:53:44.836Z,35.76
2023-05-01T07:56:14.008Z,35.91
2023-05-01T07:58:43.255Z,36.13
2023-05-01T08:01:12.728Z,35.46
2023-05-01T08:03:41.961Z,35.61
2023-05-01T08:06:10.896Z,35.84
2023-05-01T08:08:39.896Z,36.43
2023-05-01T08:11:09.659Z,36.22
2023-05-01T08:13:38.590Z,36.42
2023-05-01T08:16:07.774Z,36.05
2023-05-01T08:18:36.608Z,35.61
2023-05-01T08:21:05.557Z,35.70
2023-05-01T08:23:34.366Z,36.24
2023-05-01T08:26:03.544Z,36.81
2023-05-01T08:28:35.781Z,36.49
2023-05-01T08:31:04.800Z,36.56
2023-05-01T08:33:34.527Z,37.42
2023-05-01T08:36:03.656Z,37.00
2023-05-01T08:38:32.499Z,37.58
2023-05-01T08:41:02.332Z,37.05
2023-05-01T08:43:34.441Z,37.52
2023-05-01T08:46:08.630Z,36.29
2023-05-01T08:48:39.190Z,37.04
2023-05-01T08:51:10.776Z,37.19
2023-05-01T08:53:41.782Z,36.93
2023-05-01T08:56:14.299Z,37.33
2023-05-01T08:58:46.546Z,36.08
2023-05-01T09:01:18.089Z,36.70
2023-05-01T09:03:48.905Z,37.12
2023-05-01T09:06:18.177Z,37.06
2023-05-01T09:08:47.139Z,37.16
2023-05-01T09:11:16.057Z,37.08
2023-05-01T09:13:45.097Z,36.65
2023-05-01T09:16:14.154Z,37.05
2023-05-01T09:18:43.247Z,37.99
2023-05-01T09:21:12.983Z,37.59
2023-05-01T09:23:42.051Z,37.21
2023-05-01T09:26:11.170Z,37.11
2023-05-01T09:28:49.692Z,37.69
2023-05-01T09:31:33.357Z,37.65
2023-05-01T09:34:04.136Z,38.04
2023-05-01T09:36:35.055Z,37.75
2023-05-01T09:39:04.755Z,37.95
2023-05-01T09:41:34.133Z,38.66
2023-05-01T09:44:03.268Z,38.60
2023-05-01T09:46:44.393Z,38.82
2023-05-01T09:49:13.499Z,38.65
2023-05-01T09:51:43.170Z,38.82
2023-05-01T09:54:22.236Z,38.85
2023-05-01T09:56:51.205Z,38.41
2023-05-01T09:59:21.985Z,39.19
2023-05-01T10:01:52.892Z,39.01
2023-05-01T10:04:34.703Z,39.85
2023-05-01T10:07:14.096Z,39.49
2023-05-01T10:09:43.048Z,39.83
2023-05-01T10:12:23.733Z,39.78
2023-05-01T10:14:57.217Z,39.41
2023-05-01T10:17:26.062Z,39.69
2023-05-01T10:19:56.246Z,40.16
2023-05-01T10:22:25.324Z,40.51
2023-05-01T10:24:54.350Z,40.41
2023-05-01T10:27:25.348Z,40.20
2023-05-01T10:29:55.295Z,40.57
2023-05-01T10:32:24.644Z,40.72
2023-05-01T10:34:59.598Z,40.47
2023-05-01T10:37:46.874Z,40.77
2023-05-01T10:40:45.547Z,40.92
2023-05-01T10:43:29.322Z,41.56
2023-05-01T10:46:11.068Z,42.17
2023-05-01T10:48:40.108Z,43.48
2023-05-01T10:51:24.339Z,44.00
2023-05-01T10:54:13.247Z,44.15
2023-05-01T10:56:44.183Z,43.97
2023-05-01T10:59:13.570Z,43.64
2023-05-01T11:01:46.323Z,43.70
2023-05-01T11:04:27.786Z,43.24
2023-05-01T11:07:04.220Z,42.90
2023-05-01T11:09:39.644Z,43.30
2023-05-01T11:12:10.623Z,42.82
2023-05-01T11:14:54.904Z,42.91
2023-05-01T11:17:42.691Z,43.05
2023-05-01T11:20:38.170Z,43.08
2023-05-01T11:23:07.632Z,43.58
2023-05-01T11:25:36.504Z,43.94
2023-05-01T11:28:07.324Z,43.72
2023-05-01T11:30:42.879Z,43.78
2023-05-01T11:33:11.908Z,43.68
2023-05-01T11:35:41.735Z,43.55
2023-05-01T11:38:19.632Z,44.08
2023-05-01T11:40:56.088Z,43.84
2023-05-01T11:43:24.984Z,44.20
2023-05-01T11:46:03.072Z,44.39
2023-05-01T11:48:33.494Z,44.39
2023-05-01T11:51:13.444Z,44.54
2023-05-01T11:53:42.563Z,44.59
2023-05-01T11:56:26.418Z,44.94
2023-05-01T11:58:58.236Z,45.11
2023-05-01T12:01:39.131Z,45.41
2023-05-01T12:04:09.202Z,45.31
2023-05-01T12:06:46.340Z,45.50
2023-05-01T12:09:19.668Z,45.24
2023-05-01T12:11:53.404Z,45.48
2023-05-01T12:14:24.894Z,46.33
2023-05-01T12:16:54.107Z,46.65
2023-05-01T12:19:23.959Z,46.80
2023-05-01T12:22:07.300Z,46.80
2023-05-01T12:24:36.977Z,46.99
2023-05-01T12:27:07.766Z,47.07
2023-05-01T12:29:43.296Z,47.61
2023-05-01T12:32:12.256Z,47.79
2023-05-01T12:34:42.388Z,47.46
2023-05-01T12:37:11.866Z,47.27
2023-05-01T12:39:43.114Z,47.23
2023-05-01T12:42:17.535Z,47.54
2023-05-01T12:44:46.757Z,47.52
2023-05-01T12:47:15.960Z,47.45
2023-05-01T12:49:45.032Z,47.74
2023-05-01T12:52:13.954Z,47.24
2023-05-01T12:54:44.582Z,47.56
2023-05-01T12:57:15.484Z,47.35
2023-05-01T12:59:46.369Z,47.48
2023-05-01T13:02:19.179Z,47.58
2023-05-01T13:04:51.804Z,47.69
2023-05-01T13:07:20.721Z,47.50
2023-05-01T13:09:58.093Z,47.41
2023-05-01T13:12:28.365Z,47.61
2023-05-01T13:14:58.083Z,48.25
2023-05-01T13:17:29.323Z,47.92
2023-05-01T13:20:00.754Z,47.94
2023-05-01T13:22:38.652Z,47.51
2023-05-01T13:25:21.049Z,47.94
2023-05-01T13:27:52.922Z,48.42
2023-05-01T13:30:31.998Z,48.54
2023-05-01T13:33:02.426Z,48.31
2023-05-01T13:35:32.351Z,48.55
2023-05-01T13:38:04.321Z,48.60
2023-05-01T13:40:37.151Z,48.85
2023-05-01T13:43:06.182Z,48.87
2023-05-01T13:45:35.246Z,49.37
2023-05-01T13:48:06.148Z,49.54
2023-05-01T13:50:35.570Z,49.42
2023-05-01T13:53:07.601Z,49.61
2023-05-01T13:55:39.188Z,50.06
2023-05-01T13:58:08.082Z,50.37
2023-05-01T14:00:40.014Z,50.79
2023-05-01T14:03:11.393Z,50.65
2023-05-01T14:05:41.259Z,50.67
2023-05-01T14:08:11.354Z,50.55
2023-05-01T14:10:40.194Z,51.09
2023-05-01T14:13:09.223Z,51.14
2023-05-01T14:15:44.388Z,51.49
2023-05-01T14:18:18.064Z,51.55
2023-05-01T14:20:49.887Z,51.42
2023-05-01T14:23:21.072Z,51.79
2023-05-01T14:25:50.338Z,52.00
2023-05-01T14:28:19.484Z,52.00
2023-05-01T14:30:50.078Z,52.01
2023-05-01T14:33:19.172Z,51.63
2023-05-01T14:35:53.034Z,51.83
2023-05-01T14:38:23.255Z,51.96
2023-05-01T14:40:52.730Z,51.94
2023-05-01T14:43:24.897Z,52.40
2023-05-01T14:45:55.958Z,52.69
2023-05-01T14:48:26.846Z,51.83
2023-05-01T14:50:55.766Z,52.58
2023-05-01T14:53:24.555Z,52.00
2023-05-01T14:55:54.774Z,51.96
2023-05-01T14:58:23.733Z,52.43
2023-05-01T15:00:53.503Z,52.12
2023-05-01T15:03:22.884Z,52.13
2023-05-01T15:05:51.875Z,52.20
2023-05-01T15:08:20.736Z,52.56
2023-05-01T15:10:49.801Z,52.61
2023-05-01T15:13:18.684Z,52.53
2023-05-01T15:15:47.536Z,52.62
2023-05-01T15:18:16.464Z,52.71
2023-05-01T15:20:45.485Z,52.39
2023-05-01T15:23:14.446Z,52.72
2023-05-01T15:25:48.234Z,52.88
2023-05-01T15:28:17.264Z,53.17
2023-05-01T15:30:47.548Z,52.88
2023-05-01T15:33:18.984Z,52.49
2023-05-01T15:35:49.337Z,52.99
2023-05-01T15:38:18.365Z,53.05
2023-05-01T15:40:47.202Z,52.54
2023-05-01T15:43:16.109Z,53.22
2023-05-01T15:45:45.405Z,52.63
2023-05-01T15:48:14.516Z,52.71
2023-05-01T15:50:43.502Z,53.31
2023-05-01T15:53:12.319Z,52.72
2023-05-01T15:55:41.241Z,52.65
2023-05-01T15:58:10.033Z,52.95
2023-05-01T16:00:40.402Z,53.00
2023-05-01T16:03:09.624Z,53.27
2023-05-01T16:05:39.669Z,53.46
2023-05-01T16:08:08.931Z,52.95
2023-05-01T16:10:38.377Z,52.98
2023-05-01T16:13:07.711Z,53.12
2023-05-01T16:15:38.179Z,53.47
2023-05-01T16:18:07.216Z,53.22
2023-05-01T16:20:41.849Z,53.83
2023-05-01T16:23:11.457Z,53.62
2023-05-01T16:25:43.800Z,53.62
2023-05-01T16:28:13.706Z,53.74
2023-05-01T16:30:46.481Z,53.71
2023-05-01T16:33:23.921Z,53.27
2023-05-01T16:35:52.938Z,53.60
2023-05-01T16:38:21.776Z,53.99
2023-05-01T16:40:50.696Z,53.98
2023-05-01T16:43:21.810Z,53.78
2023-05-01T16:45:50.725Z,53.66
2023-05-01T16:48:24.018Z,54.06
2023-05-01T16:50:53.070Z,53.76
2023-05-01T16:53:22.798Z,53.38
2023-05-01T16:55:51.613Z,53.92
2023-05-01T16:58:21.116Z,53.78
2023-05-01T17:00:50.709Z,54.31
2023-05-01T17:03:20.125Z,53.89
2023-05-01T17:05:49.044Z,54.14
2023-05-01T17:08:17.839Z,53.97
2023-05-01T17:10:46.813Z,54.15
2023-05-01T17:13:16.344Z,54.64
2023-05-01T17:15:45.247Z,54.42
2023-05-01T17:18:14.167Z,54.91
2023-05-01T17:20:43.183Z,54.92
2023-05-01T17:23:12.070Z,54.82
2023-05-01T17:25:40.961Z,55.32
2023-05-01T17:28:09.822Z,54.94
2023-05-01T17:30:38.710Z,54.54
2023-05-01T17:33:07.653Z,54.97
2023-05-01T17:35:36.580Z,54.98
2023-05-01T17:38:05.431Z,55.16
2023-05-01T17:40:34.392Z,55.22
2023-05-01T17:43:03.890Z,55.65
2023-05-01T17:45:32.847Z,55.26
2023-05-01T17:48:01.826Z,55.08
2023-05-01T17:50:30.649Z,55.33
2023-05-01T17:52:59.362Z,55.56
2023-05-01T17:55:28.535Z,55.60
2023-05-01T17:57:57.323Z,54.95
2023-05-01T18:00:28.278Z,55.55
2023-05-01T18:02:57.393Z,55.53
2023-05-01T18:05:26.744Z,55.17
2023-05-01T18:07:55.493Z,54.85
2023-05-01T18:10:25.336Z,55.12
2023-05-01T18:12:54.825Z,54.93
2023-05-01T18:15:23.626Z,55.24
2023-05-01T18:17:52.641Z,55.48
2023-05-01T18:20:21.983Z,55.19
2023-05-01T18:22:51.174Z,55.60
2023-05-01T18:25:20.571Z,55.23
2023-05-01T18:27:49.821Z,54.87
2023-05-01T18:30:18.670Z,55.51
2023-05-01T18:32:48.884Z,55.13
2023-05-01T18:35:19.251Z,55.38
2023-05-01T18:37:48.236Z,55.13
2023-05-01T18:40:17.237Z,55.60
2023-05-01T18:42:46.159Z,55.31
2023-05-01T18:45:15.197Z,55.71
2023-05-01T18:47:44.153Z,55.77
2023-05-01T18:50:13.858Z,55.50
2023-05-01T18:52:42.974Z,54.97
2023-05-01T18:55:12.228Z,55.63
2023-05-01T18:57:44.717Z,55.66
2023-05-01T19:00:16.758Z,55.66
2023-05-01T19:02:52.112Z,55.84
2023-05-01T19:05:22.989Z,55.76
2023-05-01T19:07:55.603Z,55.91
2023-05-01T19:10:24.484Z,55.50
2023-05-01T19:12:53.303Z,55.75
2023-05-01T19:15:22.152Z,55.87
2023-05-01T19:17:51.647Z,55.43
2023-05-01T19:20:20.692Z,55.14
2023-05-01T19:22:49.525Z,55.47
2023-05-01T19:25:20.005Z,55.80
2023-05-01T19:27:49.651Z,55.74
2023-05-01T19:30:18.580Z,56.24
2023-05-01T19:32:47.790Z,56.95
2023-05-01T19:35:16.792Z,56.46
2023-05-01T19:37:45.582Z,56.70
2023-05-01T19:40:14.461Z,57.20
2023-05-01T19:42:43.422Z,56.86
2023-05-01T19:45:12.334Z,57.75
2023-05-01T19:47:41.273Z,58.16
2023-05-01T19:50:10.468Z,58.26
2023-05-01T19:52:39.304Z,57.95
2023-05-01T19:55:08.726Z,58.15
2023-05-01T19:57:37.726Z,58.08
2023-05-01T20:00:08.692Z,58.29
2023-05-01T20:02:42.073Z,58.67
2023-05-01T20:05:13.602Z,58.29
2023-05-01T20:07:42.481Z,58.30
2023-05-01T20:10:11.560Z,58.07
2023-05-01T20:12:40.601Z,57.84
2023-05-01T20:15:10.021Z,57.66
2023-05-01T20:17:38.951Z,58.01
2023-05-01T20:20:08.241Z,57.64
2023-05-01T20:22:37.180Z,57.49
2023-05-01T20:25:09.375Z,57.73
2023-05-01T20:27:39.616Z,57.56
2023-05-01T20:30:13.215Z,58.32
2023-05-01T20:32:44.653Z,57.78
2023-05-01T20:35:13.596Z,58.04
2023-05-01T20:37:42.679Z,57.59
2023-05-01T20:40:12.776Z,58.13
2023-05-01T20:42:43.527Z,58.33
2023-05-01T20:45:12.361Z,58.39
2023-05-01T20:47:41.363Z,57.98
2023-05-01T20:50:10.668Z,58.17
2023-05-01T20:52:39.499Z,57.99
2023-05-01T20:55:08.764Z,58.29
2023-05-01T20:57:37.977Z,57.97
2023-05-01T21:00:09.010Z,58.33
2023-05-01T21:02:39.361Z,58.19
2023-05-01T21:05:12.891Z,57.97
2023-05-01T21:07:41.899Z,58.54
2023-05-01T21:10:12.068Z,58.32
2023-05-01T21:12:41.484Z,58.62
2023-05-01T21:15:12.064Z,58.97
2023-05-01T21:17:43.768Z,58.70
2023-05-01T21:20:17.398Z,59.15
2023-05-01T21:22:49.632Z,59.41
2023-05-01T21:25:27.454Z,59.32
2023-05-01T21:27:56.807Z,58.95
2023-05-01T21:30:34.949Z,59.26
2023-05-01T21:33:06.964Z,59.53
2023-05-01T21:35:35.967Z,59.57
2023-05-01T21:38:05.871Z,59.27
2023-05-01T21:40:38.228Z,59.62
2023-05-01T21:43:07.881Z,59.80
2023-05-01T21:45:40.938Z,59.61
2023-05-01T21:48:10.536Z,59.35
2023-05-01T21:50:39.464Z,60.13
2023-05-01T21:53:08.449Z,60.12
2023-05-01T21:55:37.302Z,59.87
2023-05-01T21:58:06.240Z,60.61
2023-05-01T22:00:36.157Z,61.11
2023-05-01T22:03:08.044Z,60.54
2023-05-01T22:05:41.443Z,60.73
2023-05-01T22:08:10.297Z,60.35
2023-05-01T22:10:39.110Z,60.60
2023-05-01T22:13:08.028Z,61.00
2023-05-01T22:15:37.036Z,60.79
2023-05-01T22:18:06.094Z,61.53
2023-05-01T22:20:35.063Z,61.49
2023-05-01T22:23:04.000Z,62.06
2023-05-01T22:25:32.817Z,62.17
2023-05-01T22:28:04.822Z,61.62
2023-05-01T22:30:35.401Z,62.13
2023-05-01T22:33:04.578Z,62.29
2023-05-01T22:35:33.526Z,62.54
2023-05-01T22:38:02.460Z,62.28
2023-05-01T22:40:33.722Z,62.38
2023-05-01T22:43:05.360Z,62.46
2023-05-01T22:45:34.217Z,62.91
2023-05-01T22:48:03.200Z,62.49
2023-05-01T22:50:32.392Z,62.36
2023-05-01T22:53:01.308Z,62.26
2023-05-01T22:55:30.479Z,61.97
2023-05-01T22:57:59.333Z,62.35
2023-05-01T23:00:42.872Z,62.82
2023-05-01T23:03:12.707Z,62.50
2023-05-01T23:05:41.712Z,61.96
2023-05-01T23:08:10.768Z,62.67
2023-05-01T23:10:43.394Z,62.58
2023-05-01T23:13:22.635Z,62.52
2023-05-01T23:15:52.888Z,62.56
2023-05-01T23:18:25.452Z,62.93
2023-05-01T23:20:56.102Z,62.63
2023-05-01T23:23:31.812Z,62.77
2023-05-01T23:26:00.902Z,63.02
2023-05-01T23:28:30.249Z,63.07
2023-05-01T23:31:01.824Z,62.54
2023-05-01T23:33:39.959Z,62.87
2023-05-01T23:36:13.320Z,62.82
2023-05-01T23:38:42.488Z,63.11
2023-05-01T23:41:11.726Z,63.13
2023-05-01T23:43:40.821Z,63.15
2023-05-01T23:46:09.799Z,62.91
2023-05-01T23:48:38.864Z,63.19
2023-05-01T23:51:07.821Z,62.64
2023-05-01T23:53:36.763Z,62.87
2023-05-01T23:56:05.798Z,63.17
2023-05-01T23:58:34.776Z,63.08
